Terminal Aerodrome Forecast
Issued by NWS Newport/Morehead City, NC

Home | Current Version | Previous Version | Text Only | Print | Product List | Glossary Off
Versions: 1 2 3 4 5 6 7 8 9 10 11 12 13 14

000
FTUS42 KMHX 212300
TAFEWN
TAF
KEWN 212321Z 2200/2224 03006KT P6SM SKC
     FM220900 00000KT 4SM BR SKC
     FM221200 24005KT P6SM BKN150
     FM221600 24010KT P6SM SKC=

USA.gov is the U.S. government's official web portal to all federal, state and local government web resources and services.